Lulu Pass Weather Station

This weather station is located at 10020ft near Lulu Pass at the head of Fisher Creek. This data can be used with temperature and precipitation data from the Fisher Creek SNOTEL site. This data can be viewed directly on datagarrison.com

Elevation
10020ft
Jump to table bottom
Date Time Temperature
deg F
RH, % Wind Speed Wind Gust Wind Direction
02/04/23 23:00 13.5 92 5 13 SW - 205
02/04/23 22:00 14.0 92 6 15 SW - 243
02/04/23 21:00 14.3 92 8 21 SW - 227
02/04/23 20:00 14.5 92 6 18 SW - 232
02/04/23 19:00 14.6 92 8 21 SW - 234
02/04/23 18:00 14.7 92 10 26 SW - 234
02/04/23 17:00 14.8 92 12 26 SW - 225
02/04/23 16:00 15.6 92 11 26 SW - 219
02/04/23 15:00 15.9 92 12 28 SW - 218
02/04/23 14:00 15.1 92 13 26 SW - 220
02/04/23 13:00 15.1 92 14 32 SW - 225
02/04/23 12:00 14.1 92 11 29 SW - 230
02/04/23 11:00 13.2 91 13 31 SW - 229
02/04/23 10:00 12.5 91 13 32 SW - 213
02/04/23 09:00 11.9 91 15 31 SW - 219
02/04/23 08:00 12.2 92 15 31 SW - 222
02/04/23 07:00 12.2 92 16 32 SW - 213
02/04/23 06:00 12.9 92 16 30 SW - 215
02/04/23 05:00 13.0 92 16 38 SW - 219
02/04/23 04:00 13.0 92 20 37 SW - 208
02/04/23 03:00 13.6 92 19 41 SW - 212
02/04/23 02:00 14.0 92 21 41 S - 201
02/04/23 01:00 14.5 92 16 33 SW - 204
02/04/23 00:00 15.1 92 9 19 SW - 236
02/03/23 23:00 15.2 92 10 32 SW - 247
02/03/23 22:00 16.1 91 21 43 S - 202
02/03/23 21:00 16.6 90 28 56 S - 198
02/03/23 20:00 17.1 87 21 51 SW - 205
02/03/23 19:00 18.1 81 21 49 S - 201
02/03/23 18:00 18.9 78 13 28 SW - 222
02/03/23 17:00 20.7 77 15 44 SW - 218
02/03/23 16:00 23.4 74 17 32 SW - 209
02/03/23 15:00 23.4 80 17 39 SW - 206
02/03/23 14:00 23.0 88 9 22 SW - 230
02/03/23 13:00 21.0 91 9 26 SW - 236
02/03/23 12:00 20.2 92 11 28 SW - 215
02/03/23 11:00 19.1 93 9 24 SW - 208
02/03/23 10:00 18.0 94 10 29 S - 194
02/03/23 09:00 15.6 93 5 16 S - 181
02/03/23 08:00 14.7 92 5 14 SW - 226
02/03/23 07:00 12.8 92 7 21 W - 271
02/03/23 06:00 13.5 92 10 19 W - 267
02/03/23 05:00 12.5 91 9 20 NW - 300
02/03/23 04:00 11.7 91 9 19 W - 284
02/03/23 03:00 12.0 91 8 21 NW - 295
02/03/23 02:00 11.6 91 6 16 W - 278
02/03/23 01:00 10.6 91 6 22 NW - 310
02/03/23 00:00 10.8 91 4 14 W - 277
02/02/23 23:00 11.1 91 6 14 SW - 225
02/02/23 22:00 10.6 91 7 14 SW - 232